sensor_id;sensor_type;location;lat;lon;timestamp;P1;durP1;ratioP1;P2;durP2;ratioP2
5730;SDS011;2890;51.950;7.668;2023-06-22T00:01:10;12.80;;;11.87;;
5730;SDS011;2890;51.950;7.668;2023-06-22T00:03:37;12.33;;;11.43;;
5730;SDS011;2890;51.950;7.668;2023-06-22T00:06:04;13.37;;;11.93;;
5730;SDS011;2890;51.950;7.668;2023-06-22T00:08:31;11.87;;;10.87;;
5730;SDS011;2890;51.950;7.668;2023-06-22T00:10:57;12.70;;;11.60;;
5730;SDS011;2890;51.950;7.668;2023-06-22T00:13:24;13.67;;;12.37;;
5730;SDS011;2890;51.950;7.668;2023-06-22T00:15:51;13.50;;;12.17;;
5730;SDS011;2890;51.950;7.668;2023-06-22T00:18:17;11.93;;;10.60;;
5730;SDS011;2890;51.950;7.668;2023-06-22T00:20:44;13.40;;;12.40;;
5730;SDS011;2890;51.950;7.668;2023-06-22T00:23:12;13.50;;;12.30;;
5730;SDS011;2890;51.950;7.668;2023-06-22T00:25:40;12.17;;;11.17;;
5730;SDS011;2890;51.950;7.668;2023-06-22T00:28:07;14.27;;;13.10;;
5730;SDS011;2890;51.950;7.668;2023-06-22T00:30:34;14.43;;;13.20;;
5730;SDS011;2890;51.950;7.668;2023-06-22T00:33:01;12.73;;;11.63;;
5730;SDS011;2890;51.950;7.668;2023-06-22T00:35:27;13.43;;;12.23;;
5730;SDS011;2890;51.950;7.668;2023-06-22T00:37:54;13.90;;;11.63;;
5730;SDS011;2890;51.950;7.668;2023-06-22T00:40:27;11.97;;;11.07;;
5730;SDS011;2890;51.950;7.668;2023-06-22T00:42:54;12.53;;;11.40;;
5730;SDS011;2890;51.950;7.668;2023-06-22T00:45:21;12.80;;;11.70;;
5730;SDS011;2890;51.950;7.668;2023-06-22T00:47:49;13.80;;;12.60;;
5730;SDS011;2890;51.950;7.668;2023-06-22T00:50:18;14.03;;;12.80;;
5730;SDS011;2890;51.950;7.668;2023-06-22T00:52:47;13.17;;;12.00;;
5730;SDS011;2890;51.950;7.668;2023-06-22T00:55:14;13.83;;;12.73;;
5730;SDS011;2890;51.950;7.668;2023-06-22T00:57:44;13.57;;;12.37;;
5730;SDS011;2890;51.950;7.668;2023-06-22T01:00:12;13.00;;;12.00;;
5730;SDS011;2890;51.950;7.668;2023-06-22T01:02:43;12.83;;;11.80;;
5730;SDS011;2890;51.950;7.668;2023-06-22T01:05:11;12.93;;;12.00;;
5730;SDS011;2890;51.950;7.668;2023-06-22T01:07:39;13.50;;;12.50;;
5730;SDS011;2890;51.950;7.668;2023-06-22T01:10:10;14.13;;;13.03;;
5730;SDS011;2890;51.950;7.668;2023-06-22T01:12:42;13.90;;;12.73;;
5730;SDS011;2890;51.950;7.668;2023-06-22T01:15:17;13.77;;;12.60;;
5730;SDS011;2890;51.950;7.668;2023-06-22T01:17:47;14.23;;;13.23;;
5730;SDS011;2890;51.950;7.668;2023-06-22T01:20:14;14.13;;;12.73;;
5730;SDS011;2890;51.950;7.668;2023-06-22T01:22:45;14.37;;;13.00;;
5730;SDS011;2890;51.950;7.668;2023-06-22T01:25:21;13.93;;;12.90;;
5730;SDS011;2890;51.950;7.668;2023-06-22T01:27:56;13.97;;;12.77;;
5730;SDS011;2890;51.950;7.668;2023-06-22T01:30:28;15.87;;;14.17;;
5730;SDS011;2890;51.950;7.668;2023-06-22T01:32:56;14.60;;;13.57;;
5730;SDS011;2890;51.950;7.668;2023-06-22T01:35:23;14.73;;;13.53;;
5730;SDS011;2890;51.950;7.668;2023-06-22T01:37:50;15.13;;;13.80;;
5730;SDS011;2890;51.950;7.668;2023-06-22T01:40:16;15.43;;;14.23;;
5730;SDS011;2890;51.950;7.668;2023-06-22T01:42:44;14.20;;;13.10;;
5730;SDS011;2890;51.950;7.668;2023-06-22T01:45:10;13.60;;;12.57;;
5730;SDS011;2890;51.950;7.668;2023-06-22T01:47:38;14.60;;;13.30;;
5730;SDS011;2890;51.950;7.668;2023-06-22T01:50:05;15.33;;;13.83;;
5730;SDS011;2890;51.950;7.668;2023-06-22T01:52:32;15.20;;;13.70;;
5730;SDS011;2890;51.950;7.668;2023-06-22T01:54:59;16.07;;;14.47;;
5730;SDS011;2890;51.950;7.668;2023-06-22T01:57:26;16.27;;;14.47;;
5730;SDS011;2890;51.950;7.668;2023-06-22T01:59:55;14.77;;;13.67;;
5730;SDS011;2890;51.950;7.668;2023-06-22T02:02:25;15.43;;;13.87;;
5730;SDS011;2890;51.950;7.668;2023-06-22T02:04:56;15.63;;;14.13;;
5730;SDS011;2890;51.950;7.668;2023-06-22T02:07:26;15.83;;;14.43;;
5730;SDS011;2890;51.950;7.668;2023-06-22T02:09:54;15.43;;;13.87;;
5730;SDS011;2890;51.950;7.668;2023-06-22T02:12:23;15.57;;;14.17;;
5730;SDS011;2890;51.950;7.668;2023-06-22T02:14:52;15.17;;;13.87;;
5730;SDS011;2890;51.950;7.668;2023-06-22T02:17:19;15.87;;;14.57;;
5730;SDS011;2890;51.950;7.668;2023-06-22T02:19:46;14.97;;;13.67;;
5730;SDS011;2890;51.950;7.668;2023-06-22T02:22:14;14.80;;;13.60;;
5730;SDS011;2890;51.950;7.668;2023-06-22T02:24:40;15.83;;;14.40;;
5730;SDS011;2890;51.950;7.668;2023-06-22T02:27:07;16.30;;;14.70;;
5730;SDS011;2890;51.950;7.668;2023-06-22T02:29:33;15.00;;;13.90;;
5730;SDS011;2890;51.950;7.668;2023-06-22T02:31:59;15.30;;;14.10;;
5730;SDS011;2890;51.950;7.668;2023-06-22T02:34:26;16.23;;;14.93;;
5730;SDS011;2890;51.950;7.668;2023-06-22T02:36:52;15.27;;;13.90;;
5730;SDS011;2890;51.950;7.668;2023-06-22T02:39:21;16.60;;;14.97;;
5730;SDS011;2890;51.950;7.668;2023-06-22T02:41:48;15.53;;;14.20;;
5730;SDS011;2890;51.950;7.668;2023-06-22T02:44:15;16.50;;;14.77;;
5730;SDS011;2890;51.950;7.668;2023-06-22T02:46:41;15.27;;;13.77;;
5730;SDS011;2890;51.950;7.668;2023-06-22T02:49:08;15.73;;;14.30;;
5730;SDS011;2890;51.950;7.668;2023-06-22T02:51:34;16.47;;;14.97;;
5730;SDS011;2890;51.950;7.668;2023-06-22T02:54:01;16.20;;;14.90;;
5730;SDS011;2890;51.950;7.668;2023-06-22T02:56:29;15.50;;;14.20;;
5730;SDS011;2890;51.950;7.668;2023-06-22T02:58:56;14.83;;;13.63;;
5730;SDS011;2890;51.950;7.668;2023-06-22T03:01:25;15.47;;;14.13;;
5730;SDS011;2890;51.950;7.668;2023-06-22T03:03:52;17.07;;;15.57;;
5730;SDS011;2890;51.950;7.668;2023-06-22T03:06:19;17.07;;;15.37;;
5730;SDS011;2890;51.950;7.668;2023-06-22T03:08:48;15.87;;;14.50;;
5730;SDS011;2890;51.950;7.668;2023-06-22T03:11:14;17.10;;;15.50;;
5730;SDS011;2890;51.950;7.668;2023-06-22T03:13:43;16.80;;;15.40;;
5730;SDS011;2890;51.950;7.668;2023-06-22T03:16:10;18.50;;;16.90;;
5730;SDS011;2890;51.950;7.668;2023-06-22T03:18:37;19.37;;;17.47;;
5730;SDS011;2890;51.950;7.668;2023-06-22T03:21:03;17.33;;;15.93;;
5730;SDS011;2890;51.950;7.668;2023-06-22T03:23:30;17.20;;;15.67;;
5730;SDS011;2890;51.950;7.668;2023-06-22T03:25:57;17.47;;;15.70;;
5730;SDS011;2890;51.950;7.668;2023-06-22T03:28:23;16.63;;;15.23;;
5730;SDS011;2890;51.950;7.668;2023-06-22T03:30:51;15.73;;;14.43;;
5730;SDS011;2890;51.950;7.668;2023-06-22T03:33:17;18.73;;;16.10;;
5730;SDS011;2890;51.950;7.668;2023-06-22T03:35:44;17.97;;;16.27;;
5730;SDS011;2890;51.950;7.668;2023-06-22T03:38:10;17.47;;;16.00;;
5730;SDS011;2890;51.950;7.668;2023-06-22T03:40:37;21.53;;;16.60;;
5730;SDS011;2890;51.950;7.668;2023-06-22T03:43:03;16.90;;;15.17;;
5730;SDS011;2890;51.950;7.668;2023-06-22T03:45:29;18.40;;;16.90;;
5730;SDS011;2890;51.950;7.668;2023-06-22T03:47:57;18.33;;;16.83;;
5730;SDS011;2890;51.950;7.668;2023-06-22T03:50:24;17.20;;;15.70;;
5730;SDS011;2890;51.950;7.668;2023-06-22T03:52:50;16.90;;;15.37;;
5730;SDS011;2890;51.950;7.668;2023-06-22T03:55:19;19.13;;;17.23;;
5730;SDS011;2890;51.950;7.668;2023-06-22T03:57:45;16.10;;;14.80;;
5730;SDS011;2890;51.950;7.668;2023-06-22T04:00:12;18.23;;;16.43;;
5730;SDS011;2890;51.950;7.668;2023-06-22T04:02:40;18.20;;;16.13;;
5730;SDS011;2890;51.950;7.668;2023-06-22T04:05:09;18.17;;;16.47;;
5730;SDS011;2890;51.950;7.668;2023-06-22T04:07:36;16.67;;;15.10;;
5730;SDS011;2890;51.950;7.668;2023-06-22T04:10:03;16.07;;;14.67;;
5730;SDS011;2890;51.950;7.668;2023-06-22T04:12:29;15.90;;;14.60;;
5730;SDS011;2890;51.950;7.668;2023-06-22T04:14:56;17.83;;;15.63;;
5730;SDS011;2890;51.950;7.668;2023-06-22T04:17:23;17.93;;;16.20;;
5730;SDS011;2890;51.950;7.668;2023-06-22T04:19:50;16.27;;;14.77;;
5730;SDS011;2890;51.950;7.668;2023-06-22T04:22:18;16.97;;;15.37;;
5730;SDS011;2890;51.950;7.668;2023-06-22T04:24:44;15.50;;;13.90;;
5730;SDS011;2890;51.950;7.668;2023-06-22T04:27:11;16.33;;;14.90;;
5730;SDS011;2890;51.950;7.668;2023-06-22T04:29:37;16.17;;;14.53;;
5730;SDS011;2890;51.950;7.668;2023-06-22T04:32:08;15.83;;;14.37;;
5730;SDS011;2890;51.950;7.668;2023-06-22T04:34:37;15.97;;;14.20;;
5730;SDS011;2890;51.950;7.668;2023-06-22T04:37:04;16.53;;;15.00;;
5730;SDS011;2890;51.950;7.668;2023-06-22T04:39:32;15.57;;;14.07;;
5730;SDS011;2890;51.950;7.668;2023-06-22T04:41:58;16.37;;;14.77;;
5730;SDS011;2890;51.950;7.668;2023-06-22T04:44:25;16.13;;;14.50;;
5730;SDS011;2890;51.950;7.668;2023-06-22T04:46:53;15.93;;;14.40;;
5730;SDS011;2890;51.950;7.668;2023-06-22T04:49:25;15.90;;;14.03;;
5730;SDS011;2890;51.950;7.668;2023-06-22T04:51:57;16.57;;;14.80;;
5730;SDS011;2890;51.950;7.668;2023-06-22T04:54:24;17.03;;;13.97;;
5730;SDS011;2890;51.950;7.668;2023-06-22T04:56:52;15.10;;;13.70;;
5730;SDS011;2890;51.950;7.668;2023-06-22T04:59:21;16.20;;;13.80;;
5730;SDS011;2890;51.950;7.668;2023-06-22T05:01:53;14.67;;;13.03;;
5730;SDS011;2890;51.950;7.668;2023-06-22T05:04:20;15.67;;;14.27;;
5730;SDS011;2890;51.950;7.668;2023-06-22T05:06:47;13.90;;;12.80;;
5730;SDS011;2890;51.950;7.668;2023-06-22T05:09:14;14.10;;;12.90;;
5730;SDS011;2890;51.950;7.668;2023-06-22T05:11:42;14.30;;;13.10;;
5730;SDS011;2890;51.950;7.668;2023-06-22T05:14:10;14.70;;;13.47;;
5730;SDS011;2890;51.950;7.668;2023-06-22T05:16:37;14.50;;;13.10;;
5730;SDS011;2890;51.950;7.668;2023-06-22T05:19:04;13.90;;;12.77;;
5730;SDS011;2890;51.950;7.668;2023-06-22T05:21:31;14.00;;;12.80;;
5730;SDS011;2890;51.950;7.668;2023-06-22T05:23:58;14.30;;;12.87;;
5730;SDS011;2890;51.950;7.668;2023-06-22T05:26:25;14.50;;;13.40;;
5730;SDS011;2890;51.950;7.668;2023-06-22T05:28:52;14.57;;;13.13;;
5730;SDS011;2890;51.950;7.668;2023-06-22T05:31:20;14.40;;;13.20;;
5730;SDS011;2890;51.950;7.668;2023-06-22T05:33:47;13.90;;;12.70;;
5730;SDS011;2890;51.950;7.668;2023-06-22T05:36:14;13.13;;;11.97;;
5730;SDS011;2890;51.950;7.668;2023-06-22T05:38:41;13.30;;;12.20;;
5730;SDS011;2890;51.950;7.668;2023-06-22T05:41:08;12.97;;;11.77;;
5730;SDS011;2890;51.950;7.668;2023-06-22T05:43:35;12.20;;;11.30;;
5730;SDS011;2890;51.950;7.668;2023-06-22T05:46:04;16.00;;;13.00;;
5730;SDS011;2890;51.950;7.668;2023-06-22T05:48:32;13.60;;;12.50;;
5730;SDS011;2890;51.950;7.668;2023-06-22T05:50:59;13.23;;;12.13;;
5730;SDS011;2890;51.950;7.668;2023-06-22T05:53:28;14.30;;;13.00;;
5730;SDS011;2890;51.950;7.668;2023-06-22T05:55:54;14.03;;;12.87;;
5730;SDS011;2890;51.950;7.668;2023-06-22T05:58:21;12.83;;;11.70;;
5730;SDS011;2890;51.950;7.668;2023-06-22T06:00:48;14.70;;;11.90;;
5730;SDS011;2890;51.950;7.668;2023-06-22T06:03:14;13.67;;;12.57;;
5730;SDS011;2890;51.950;7.668;2023-06-22T06:05:43;13.83;;;12.63;;
5730;SDS011;2890;51.950;7.668;2023-06-22T06:08:10;12.63;;;11.43;;
5730;SDS011;2890;51.950;7.668;2023-06-22T06:10:37;14.43;;;13.23;;
5730;SDS011;2890;51.950;7.668;2023-06-22T06:13:03;16.50;;;13.57;;
5730;SDS011;2890;51.950;7.668;2023-06-22T06:15:30;13.90;;;12.70;;
5730;SDS011;2890;51.950;7.668;2023-06-22T06:17:57;14.60;;;13.30;;
5730;SDS011;2890;51.950;7.668;2023-06-22T06:20:24;14.60;;;13.30;;
5730;SDS011;2890;51.950;7.668;2023-06-22T06:22:54;13.53;;;12.40;;
5730;SDS011;2890;51.950;7.668;2023-06-22T06:25:20;13.70;;;12.40;;
5730;SDS011;2890;51.950;7.668;2023-06-22T06:27:47;13.73;;;12.53;;
5730;SDS011;2890;51.950;7.668;2023-06-22T06:30:16;14.63;;;13.17;;
5730;SDS011;2890;51.950;7.668;2023-06-22T06:32:43;14.37;;;13.07;;
5730;SDS011;2890;51.950;7.668;2023-06-22T06:35:10;14.00;;;12.87;;
5730;SDS011;2890;51.950;7.668;2023-06-22T06:37:38;14.30;;;13.10;;
5730;SDS011;2890;51.950;7.668;2023-06-22T06:40:07;15.03;;;13.70;;
5730;SDS011;2890;51.950;7.668;2023-06-22T06:42:35;14.07;;;12.93;;
5730;SDS011;2890;51.950;7.668;2023-06-22T06:45:03;14.07;;;12.80;;
5730;SDS011;2890;51.950;7.668;2023-06-22T06:47:30;14.40;;;13.40;;
5730;SDS011;2890;51.950;7.668;2023-06-22T06:49:56;14.70;;;13.37;;
5730;SDS011;2890;51.950;7.668;2023-06-22T06:52:23;14.27;;;13.13;;
5730;SDS011;2890;51.950;7.668;2023-06-22T06:54:50;25.13;;;14.07;;
5730;SDS011;2890;51.950;7.668;2023-06-22T06:57:19;16.07;;;14.47;;
5730;SDS011;2890;51.950;7.668;2023-06-22T06:59:47;14.40;;;13.20;;
5730;SDS011;2890;51.950;7.668;2023-06-22T07:02:14;15.53;;;13.90;;
5730;SDS011;2890;51.950;7.668;2023-06-22T07:04:40;14.80;;;13.27;;
5730;SDS011;2890;51.950;7.668;2023-06-22T07:07:07;14.40;;;13.20;;
5730;SDS011;2890;51.950;7.668;2023-06-22T07:09:33;13.53;;;12.43;;
5730;SDS011;2890;51.950;7.668;2023-06-22T07:12:00;14.80;;;13.60;;
5730;SDS011;2890;51.950;7.668;2023-06-22T07:14:27;14.87;;;13.57;;
5730;SDS011;2890;51.950;7.668;2023-06-22T07:16:54;13.10;;;12.10;;
5730;SDS011;2890;51.950;7.668;2023-06-22T07:19:24;17.20;;;15.03;;
5730;SDS011;2890;51.950;7.668;2023-06-22T07:21:51;16.30;;;14.90;;
5730;SDS011;2890;51.950;7.668;2023-06-22T07:24:18;16.43;;;14.90;;
5730;SDS011;2890;51.950;7.668;2023-06-22T07:26:45;17.30;;;15.90;;
5730;SDS011;2890;51.950;7.668;2023-06-22T07:29:13;15.83;;;14.23;;
5730;SDS011;2890;51.950;7.668;2023-06-22T07:31:41;17.10;;;15.60;;
5730;SDS011;2890;51.950;7.668;2023-06-22T07:34:07;17.60;;;15.73;;
5730;SDS011;2890;51.950;7.668;2023-06-22T07:36:34;19.23;;;17.30;;
5730;SDS011;2890;51.950;7.668;2023-06-22T07:39:00;17.57;;;15.93;;
5730;SDS011;2890;51.950;7.668;2023-06-22T07:41:27;21.13;;;18.77;;
5730;SDS011;2890;51.950;7.668;2023-06-22T07:43:54;33.90;;;16.20;;
5730;SDS011;2890;51.950;7.668;2023-06-22T07:46:20;18.57;;;14.20;;
5730;SDS011;2890;51.950;7.668;2023-06-22T07:48:48;16.03;;;14.43;;
5730;SDS011;2890;51.950;7.668;2023-06-22T07:51:15;18.33;;;14.53;;
5730;SDS011;2890;51.950;7.668;2023-06-22T07:53:41;23.50;;;21.20;;
5730;SDS011;2890;51.950;7.668;2023-06-22T07:56:09;34.27;;;21.90;;
5730;SDS011;2890;51.950;7.668;2023-06-22T07:58:36;16.03;;;14.63;;
5730;SDS011;2890;51.950;7.668;2023-06-22T08:01:02;17.17;;;15.67;;
5730;SDS011;2890;51.950;7.668;2023-06-22T08:03:29;17.00;;;15.43;;
5730;SDS011;2890;51.950;7.668;2023-06-22T08:05:57;15.50;;;14.20;;
5730;SDS011;2890;51.950;7.668;2023-06-22T08:08:23;15.50;;;14.13;;
5730;SDS011;2890;51.950;7.668;2023-06-22T08:10:50;16.13;;;14.63;;
5730;SDS011;2890;51.950;7.668;2023-06-22T08:13:16;15.40;;;14.10;;
5730;SDS011;2890;51.950;7.668;2023-06-22T08:15:43;17.93;;;16.27;;
5730;SDS011;2890;51.950;7.668;2023-06-22T08:18:09;19.93;;;17.83;;
5730;SDS011;2890;51.950;7.668;2023-06-22T08:20:36;19.00;;;17.40;;
5730;SDS011;2890;51.950;7.668;2023-06-22T08:23:03;15.97;;;14.53;;
5730;SDS011;2890;51.950;7.668;2023-06-22T08:25:31;19.37;;;16.63;;
5730;SDS011;2890;51.950;7.668;2023-06-22T08:27:57;17.00;;;15.60;;
5730;SDS011;2890;51.950;7.668;2023-06-22T08:30:24;16.57;;;15.07;;
5730;SDS011;2890;51.950;7.668;2023-06-22T08:32:50;15.10;;;13.87;;
5730;SDS011;2890;51.950;7.668;2023-06-22T08:35:17;15.17;;;13.97;;
5730;SDS011;2890;51.950;7.668;2023-06-22T08:37:43;17.20;;;15.70;;
5730;SDS011;2890;51.950;7.668;2023-06-22T08:40:16;16.63;;;15.20;;
5730;SDS011;2890;51.950;7.668;2023-06-22T08:42:44;16.20;;;14.90;;
5730;SDS011;2890;51.950;7.668;2023-06-22T08:45:12;15.00;;;13.70;;
5730;SDS011;2890;51.950;7.668;2023-06-22T08:47:38;14.63;;;13.53;;
5730;SDS011;2890;51.950;7.668;2023-06-22T08:50:06;15.63;;;14.23;;
5730;SDS011;2890;51.950;7.668;2023-06-22T08:52:33;15.83;;;14.30;;
5730;SDS011;2890;51.950;7.668;2023-06-22T08:55:00;15.30;;;14.00;;
5730;SDS011;2890;51.950;7.668;2023-06-22T08:57:28;15.20;;;14.00;;
5730;SDS011;2890;51.950;7.668;2023-06-22T08:59:55;15.47;;;14.07;;
5730;SDS011;2890;51.950;7.668;2023-06-22T09:02:23;16.67;;;15.27;;
5730;SDS011;2890;51.950;7.668;2023-06-22T09:04:50;17.33;;;15.70;;
5730;SDS011;2890;51.950;7.668;2023-06-22T09:07:20;15.07;;;13.87;;
5730;SDS011;2890;51.950;7.668;2023-06-22T09:09:48;18.70;;;15.93;;
5730;SDS011;2890;51.950;7.668;2023-06-22T09:12:15;17.13;;;15.43;;
5730;SDS011;2890;51.950;7.668;2023-06-22T09:14:43;16.60;;;15.07;;
5730;SDS011;2890;51.950;7.668;2023-06-22T09:17:09;17.60;;;16.10;;
5730;SDS011;2890;51.950;7.668;2023-06-22T09:19:38;20.93;;;15.53;;
5730;SDS011;2890;51.950;7.668;2023-06-22T09:22:05;16.17;;;14.67;;
5730;SDS011;2890;51.950;7.668;2023-06-22T09:24:35;17.43;;;16.03;;
5730;SDS011;2890;51.950;7.668;2023-06-22T09:27:01;15.83;;;14.50;;
5730;SDS011;2890;51.950;7.668;2023-06-22T09:29:28;18.17;;;16.67;;
5730;SDS011;2890;51.950;7.668;2023-06-22T09:31:59;16.20;;;14.90;;
5730;SDS011;2890;51.950;7.668;2023-06-22T09:34:26;17.63;;;16.13;;
5730;SDS011;2890;51.950;7.668;2023-06-22T09:36:53;15.37;;;14.13;;
5730;SDS011;2890;51.950;7.668;2023-06-22T09:39:20;15.23;;;14.00;;
5730;SDS011;2890;51.950;7.668;2023-06-22T09:41:46;16.33;;;15.00;;
5730;SDS011;2890;51.950;7.668;2023-06-22T09:44:13;15.47;;;14.23;;
5730;SDS011;2890;51.950;7.668;2023-06-22T09:46:39;15.97;;;14.67;;
5730;SDS011;2890;51.950;7.668;2023-06-22T09:49:07;17.40;;;16.07;;
5730;SDS011;2890;51.950;7.668;2023-06-22T09:51:33;15.83;;;14.20;;
5730;SDS011;2890;51.950;7.668;2023-06-22T09:54:00;15.70;;;14.50;;
5730;SDS011;2890;51.950;7.668;2023-06-22T09:56:26;17.83;;;13.73;;
5730;SDS011;2890;51.950;7.668;2023-06-22T09:58:54;16.20;;;14.63;;
5730;SDS011;2890;51.950;7.668;2023-06-22T10:01:20;13.20;;;11.83;;
5730;SDS011;2890;51.950;7.668;2023-06-22T10:03:47;17.50;;;13.80;;
5730;SDS011;2890;51.950;7.668;2023-06-22T10:06:15;14.50;;;13.40;;
5730;SDS011;2890;51.950;7.668;2023-06-22T10:08:42;13.70;;;12.70;;
5730;SDS011;2890;51.950;7.668;2023-06-22T10:11:08;14.97;;;13.40;;
5730;SDS011;2890;51.950;7.668;2023-06-22T10:13:35;14.10;;;12.90;;
5730;SDS011;2890;51.950;7.668;2023-06-22T10:16:01;14.13;;;12.93;;
5730;SDS011;2890;51.950;7.668;2023-06-22T10:18:28;16.43;;;14.40;;
5730;SDS011;2890;51.950;7.668;2023-06-22T10:20:55;14.60;;;13.60;;
5730;SDS011;2890;51.950;7.668;2023-06-22T10:23:23;15.17;;;13.87;;
5730;SDS011;2890;51.950;7.668;2023-06-22T10:25:50;15.70;;;14.27;;
5730;SDS011;2890;51.950;7.668;2023-06-22T10:28:16;16.10;;;14.67;;
5730;SDS011;2890;51.950;7.668;2023-06-22T10:30:43;15.47;;;14.17;;
5730;SDS011;2890;51.950;7.668;2023-06-22T10:33:09;16.97;;;15.57;;
5730;SDS011;2890;51.950;7.668;2023-06-22T10:35:36;15.37;;;13.90;;
5730;SDS011;2890;51.950;7.668;2023-06-22T10:38:03;18.37;;;15.33;;
5730;SDS011;2890;51.950;7.668;2023-06-22T10:40:34;15.73;;;14.43;;
5730;SDS011;2890;51.950;7.668;2023-06-22T10:43:01;15.93;;;14.73;;
5730;SDS011;2890;51.950;7.668;2023-06-22T10:45:27;16.03;;;14.73;;
5730;SDS011;2890;51.950;7.668;2023-06-22T10:47:54;14.40;;;13.00;;
5730;SDS011;2890;51.950;7.668;2023-06-22T10:50:20;14.87;;;13.70;;
5730;SDS011;2890;51.950;7.668;2023-06-22T10:52:49;16.67;;;15.10;;
5730;SDS011;2890;51.950;7.668;2023-06-22T10:55:15;16.07;;;14.67;;
5730;SDS011;2890;51.950;7.668;2023-06-22T10:57:43;14.60;;;13.40;;
5730;SDS011;2890;51.950;7.668;2023-06-22T11:00:12;15.10;;;13.70;;
5730;SDS011;2890;51.950;7.668;2023-06-22T11:02:39;16.07;;;14.73;;
5730;SDS011;2890;51.950;7.668;2023-06-22T11:05:06;14.30;;;13.30;;
5730;SDS011;2890;51.950;7.668;2023-06-22T11:07:33;16.17;;;14.77;;
5730;SDS011;2890;51.950;7.668;2023-06-22T11:09:59;15.73;;;14.33;;
5730;SDS011;2890;51.950;7.668;2023-06-22T11:12:26;17.40;;;16.20;;
5730;SDS011;2890;51.950;7.668;2023-06-22T11:14:54;16.77;;;15.07;;
5730;SDS011;2890;51.950;7.668;2023-06-22T11:17:22;16.03;;;14.50;;
5730;SDS011;2890;51.950;7.668;2023-06-22T11:19:48;16.40;;;14.73;;
5730;SDS011;2890;51.950;7.668;2023-06-22T11:22:15;17.70;;;16.10;;
5730;SDS011;2890;51.950;7.668;2023-06-22T11:24:41;14.40;;;13.20;;
5730;SDS011;2890;51.950;7.668;2023-06-22T11:27:08;15.47;;;14.23;;
5730;SDS011;2890;51.950;7.668;2023-06-22T11:29:34;17.23;;;15.60;;
5730;SDS011;2890;51.950;7.668;2023-06-22T11:32:06;20.30;;;18.50;;
5730;SDS011;2890;51.950;7.668;2023-06-22T11:34:33;16.90;;;15.50;;
5730;SDS011;2890;51.950;7.668;2023-06-22T11:37:00;17.30;;;15.63;;
5730;SDS011;2890;51.950;7.668;2023-06-22T11:39:26;15.47;;;14.30;;
5730;SDS011;2890;51.950;7.668;2023-06-22T11:41:53;17.00;;;15.57;;
5730;SDS011;2890;51.950;7.668;2023-06-22T11:44:19;16.57;;;14.93;;
5730;SDS011;2890;51.950;7.668;2023-06-22T11:46:46;15.27;;;13.80;;
5730;SDS011;2890;51.950;7.668;2023-06-22T11:49:14;15.47;;;14.17;;
5730;SDS011;2890;51.950;7.668;2023-06-22T11:51:41;16.63;;;15.30;;
5730;SDS011;2890;51.950;7.668;2023-06-22T11:54:07;17.33;;;15.70;;
5730;SDS011;2890;51.950;7.668;2023-06-22T11:56:34;16.07;;;14.67;;
5730;SDS011;2890;51.950;7.668;2023-06-22T11:59:00;15.47;;;14.17;;
5730;SDS011;2890;51.950;7.668;2023-06-22T12:01:27;15.70;;;14.47;;
5730;SDS011;2890;51.950;7.668;2023-06-22T12:03:53;16.20;;;15.00;;
5730;SDS011;2890;51.950;7.668;2023-06-22T12:06:21;16.63;;;15.13;;
5730;SDS011;2890;51.950;7.668;2023-06-22T12:08:47;16.23;;;14.10;;
5730;SDS011;2890;51.950;7.668;2023-06-22T12:11:14;16.33;;;14.93;;
5730;SDS011;2890;51.950;7.668;2023-06-22T12:13:40;16.10;;;14.90;;
5730;SDS011;2890;51.950;7.668;2023-06-22T12:16:07;16.83;;;15.37;;
5730;SDS011;2890;51.950;7.668;2023-06-22T12:18:33;16.90;;;15.23;;
5730;SDS011;2890;51.950;7.668;2023-06-22T12:21:00;16.07;;;14.57;;
5730;SDS011;2890;51.950;7.668;2023-06-22T12:23:27;16.20;;;14.63;;
5730;SDS011;2890;51.950;7.668;2023-06-22T12:25:54;17.73;;;16.43;;
5730;SDS011;2890;51.950;7.668;2023-06-22T12:28:20;16.53;;;15.17;;
5730;SDS011;2890;51.950;7.668;2023-06-22T12:30:48;16.30;;;15.00;;
5730;SDS011;2890;51.950;7.668;2023-06-22T12:33:15;16.77;;;15.37;;
5730;SDS011;2890;51.950;7.668;2023-06-22T12:35:41;17.23;;;15.83;;
5730;SDS011;2890;51.950;7.668;2023-06-22T12:38:08;16.63;;;15.23;;
5730;SDS011;2890;51.950;7.668;2023-06-22T12:40:36;17.23;;;15.53;;
5730;SDS011;2890;51.950;7.668;2023-06-22T12:43:02;18.53;;;16.97;;
5730;SDS011;2890;51.950;7.668;2023-06-22T12:45:29;20.00;;;18.40;;
5730;SDS011;2890;51.950;7.668;2023-06-22T12:47:58;20.73;;;18.97;;
5730;SDS011;2890;51.950;7.668;2023-06-22T12:50:25;29.77;;;24.47;;
5730;SDS011;2890;51.950;7.668;2023-06-22T12:52:52;30.20;;;27.20;;
5730;SDS011;2890;51.950;7.668;2023-06-22T12:55:18;34.00;;;29.13;;
5730;SDS011;2890;51.950;7.668;2023-06-22T12:57:46;36.47;;;32.17;;
5730;SDS011;2890;51.950;7.668;2023-06-22T13:00:13;40.90;;;33.90;;
5730;SDS011;2890;51.950;7.668;2023-06-22T13:02:40;41.03;;;35.30;;
5730;SDS011;2890;51.950;7.668;2023-06-22T13:05:07;48.57;;;40.87;;
5730;SDS011;2890;51.950;7.668;2023-06-22T13:07:34;49.87;;;42.13;;
5730;SDS011;2890;51.950;7.668;2023-06-22T13:10:01;61.07;;;43.87;;
5730;SDS011;2890;51.950;7.668;2023-06-22T13:12:27;63.00;;;46.63;;
5730;SDS011;2890;51.950;7.668;2023-06-22T13:14:55;58.80;;;45.33;;
5730;SDS011;2890;51.950;7.668;2023-06-22T13:17:22;94.73;;;54.80;;
5730;SDS011;2890;51.950;7.668;2023-06-22T13:19:48;77.13;;;54.10;;
5730;SDS011;2890;51.950;7.668;2023-06-22T13:22:28;60.40;;;47.60;;
5730;SDS011;2890;51.950;7.668;2023-06-22T13:24:56;64.13;;;49.93;;
5730;SDS011;2890;51.950;7.668;2023-06-22T13:27:22;70.63;;;51.40;;
5730;SDS011;2890;51.950;7.668;2023-06-22T13:29:49;86.60;;;59.80;;
5730;SDS011;2890;51.950;7.668;2023-06-22T13:32:17;78.93;;;56.70;;
5730;SDS011;2890;51.950;7.668;2023-06-22T13:34:44;82.40;;;55.97;;
5730;SDS011;2890;51.950;7.668;2023-06-22T13:37:10;93.90;;;56.20;;
5730;SDS011;2890;51.950;7.668;2023-06-22T13:39:37;77.63;;;57.70;;
5730;SDS011;2890;51.950;7.668;2023-06-22T13:42:03;80.80;;;57.70;;
5730;SDS011;2890;51.950;7.668;2023-06-22T13:44:31;75.30;;;58.47;;
5730;SDS011;2890;51.950;7.668;2023-06-22T13:46:57;76.53;;;56.67;;
5730;SDS011;2890;51.950;7.668;2023-06-22T13:49:25;80.13;;;54.17;;
5730;SDS011;2890;51.950;7.668;2023-06-22T13:51:54;75.87;;;52.17;;
5730;SDS011;2890;51.950;7.668;2023-06-22T13:54:22;61.23;;;47.83;;
5730;SDS011;2890;51.950;7.668;2023-06-22T13:56:49;62.70;;;49.07;;
5730;SDS011;2890;51.950;7.668;2023-06-22T13:59:15;88.83;;;52.13;;
5730;SDS011;2890;51.950;7.668;2023-06-22T14:01:42;62.70;;;48.10;;
5730;SDS011;2890;51.950;7.668;2023-06-22T14:04:08;61.13;;;46.60;;
5730;SDS011;2890;51.950;7.668;2023-06-22T14:06:37;51.43;;;42.87;;
5730;SDS011;2890;51.950;7.668;2023-06-22T14:09:04;58.37;;;46.30;;
5730;SDS011;2890;51.950;7.668;2023-06-22T14:11:30;55.07;;;43.93;;
5730;SDS011;2890;51.950;7.668;2023-06-22T14:13:57;58.23;;;43.57;;
5730;SDS011;2890;51.950;7.668;2023-06-22T14:16:27;55.63;;;43.27;;
5730;SDS011;2890;51.950;7.668;2023-06-22T14:18:53;46.30;;;41.03;;
5730;SDS011;2890;51.950;7.668;2023-06-22T14:21:25;48.80;;;39.97;;
5730;SDS011;2890;51.950;7.668;2023-06-22T14:24:55;40.80;;;36.47;;
5730;SDS011;2890;51.950;7.668;2023-06-22T14:28:20;36.07;;;32.23;;
5730;SDS011;2890;51.950;7.668;2023-06-22T14:31:45;27.23;;;24.33;;
5730;SDS011;2890;51.950;7.668;2023-06-22T14:35:14;27.70;;;24.90;;
5730;SDS011;2890;51.950;7.668;2023-06-22T14:38:44;22.37;;;20.37;;
5730;SDS011;2890;51.950;7.668;2023-06-22T14:42:09;23.97;;;21.77;;
5730;SDS011;2890;51.950;7.668;2023-06-22T14:45:34;24.50;;;22.20;;
5730;SDS011;2890;51.950;7.668;2023-06-22T14:49:01;22.60;;;20.40;;
5730;SDS011;2890;51.950;7.668;2023-06-22T14:52:32;20.50;;;18.60;;
5730;SDS011;2890;51.950;7.668;2023-06-22T14:55:58;21.13;;;19.33;;
5730;SDS011;2890;51.950;7.668;2023-06-22T14:59:30;19.00;;;17.30;;